createdAt,value
2023-03-15T00:01:20.611Z,82.6
2023-03-15T00:07:26.430Z,82.3
2023-03-15T00:13:29.926Z,83.1
2023-03-15T00:19:24.378Z,83.4
2023-03-15T00:25:31.437Z,83.4
2023-03-15T00:31:31.519Z,84.5
2023-03-15T00:37:23.105Z,84.9
2023-03-15T00:43:15.720Z,85.3
2023-03-15T00:49:35.812Z,84.7
2023-03-15T00:55:29.551Z,85.6
2023-03-15T01:01:20.967Z,85.2
2023-03-15T01:07:12.571Z,86.6
2023-03-15T01:13:08.965Z,86.1
2023-03-15T01:19:13.233Z,87
2023-03-15T01:25:21.000Z,87
2023-03-15T01:31:15.374Z,87.1
2023-03-15T01:43:17.874Z,87.4
2023-03-15T01:55:24.229Z,88.3
2023-03-15T02:01:40.168Z,87.6
2023-03-15T02:07:30.286Z,87.5
2023-03-15T02:13:40.079Z,87.2
2023-03-15T02:20:01.325Z,87.3
2023-03-15T02:26:03.335Z,87.7
2023-03-15T02:31:57.288Z,87.8
2023-03-15T02:37:56.392Z,87.6
2023-03-15T02:43:47.625Z,87.2
2023-03-15T02:49:52.165Z,87
2023-03-15T02:55:48.603Z,87.9
2023-03-15T03:01:47.791Z,88.7
2023-03-15T03:07:43.586Z,89.9
2023-03-15T03:13:40.470Z,93.2
2023-03-15T03:19:54.981Z,95.8
2023-03-15T03:25:45.126Z,96.7
2023-03-15T03:31:36.817Z,97
2023-03-15T03:37:26.460Z,98
2023-03-15T03:43:29.728Z,98.8
2023-03-15T03:49:19.956Z,99
2023-03-15T03:55:22.808Z,98.5
2023-03-15T04:01:13.344Z,98.4
2023-03-15T04:07:04.435Z,99.8
2023-03-15T04:13:19.530Z,98.6
2023-03-15T04:19:07.999Z,100
2023-03-15T04:25:00.040Z,100
2023-03-15T04:30:51.472Z,100
2023-03-15T04:36:44.211Z,100
2023-03-15T04:42:35.792Z,100
2023-03-15T04:48:31.966Z,100
2023-03-15T04:54:27.066Z,100
2023-03-15T05:00:18.121Z,100
2023-03-15T05:06:27.702Z,100
2023-03-15T05:12:18.083Z,100
2023-03-15T05:18:10.487Z,100
2023-03-15T05:24:02.036Z,100
2023-03-15T05:29:54.505Z,100
2023-03-15T05:35:47.024Z,100
2023-03-15T05:41:51.934Z,100
2023-03-15T05:47:42.857Z,100
2023-03-15T05:53:32.930Z,100
2023-03-15T05:59:25.989Z,100
2023-03-15T06:05:22.238Z,100
2023-03-15T06:11:19.840Z,100
2023-03-15T06:17:11.928Z,100
2023-03-15T06:23:03.638Z,100
2023-03-15T06:29:02.814Z,100
2023-03-15T06:34:54.300Z,100
2023-03-15T06:40:56.229Z,100
2023-03-15T06:46:54.045Z,100
2023-03-15T06:52:43.810Z,100
2023-03-15T06:58:32.268Z,100
2023-03-15T07:04:23.648Z,100
2023-03-15T07:10:15.761Z,100
2023-03-15T07:16:06.977Z,100
2023-03-15T07:21:58.559Z,100
2023-03-15T07:27:50.503Z,100
2023-03-15T07:33:43.031Z,100
2023-03-15T07:39:35.465Z,100
2023-03-15T07:45:40.315Z,100
2023-03-15T07:51:43.583Z,100
2023-03-15T07:57:39.611Z,100
2023-03-15T08:03:32.692Z,100
2023-03-15T08:09:36.698Z,100
2023-03-15T08:15:29.605Z,100
2023-03-15T08:21:21.575Z,100
2023-03-15T08:27:13.096Z,100
2023-03-15T08:33:04.769Z,100
2023-03-15T08:39:01.759Z,100
2023-03-15T08:51:03.253Z,100
2023-03-15T08:56:55.850Z,100
2023-03-15T09:02:47.960Z,100
2023-03-15T09:08:43.467Z,100
2023-03-15T09:14:37.363Z,100
2023-03-15T09:20:36.938Z,100
2023-03-15T09:26:34.805Z,100
2023-03-15T09:32:28.540Z,100
2023-03-15T09:38:27.273Z,99.4
2023-03-15T09:44:16.568Z,100
2023-03-15T09:50:13.081Z,100
2023-03-15T09:56:04.038Z,100
2023-03-15T10:02:09.361Z,100
2023-03-15T10:08:16.151Z,100
2023-03-15T10:14:20.176Z,100
2023-03-15T10:20:16.116Z,100
2023-03-15T10:26:19.017Z,100
2023-03-15T10:32:13.758Z,100
2023-03-15T10:38:06.534Z,100
2023-03-15T10:44:00.604Z,96.3
2023-03-15T10:56:19.340Z,94.4
2023-03-15T11:21:17.344Z,87.3
2023-03-15T11:27:21.965Z,84
2023-03-15T11:33:23.087Z,85.4
2023-03-15T11:39:16.905Z,83.4
2023-03-15T11:51:25.489Z,78
2023-03-15T11:57:23.618Z,76.4
2023-03-15T12:03:23.599Z,75.5
2023-03-15T12:09:23.825Z,71.6
2023-03-15T12:15:15.294Z,71.7
2023-03-15T12:21:09.453Z,71.1
2023-03-15T12:27:10.015Z,70.6
2023-03-15T12:33:05.422Z,68.4
2023-03-15T12:38:58.294Z,70
2023-03-15T12:44:53.159Z,69.7
2023-03-15T12:50:43.395Z,68.5
2023-03-15T13:03:05.482Z,62.8
2023-03-15T13:09:00.827Z,65.2
2023-03-15T13:15:04.850Z,62.1
2023-03-15T13:20:57.109Z,62.4
2023-03-15T13:27:06.925Z,60
2023-03-15T13:33:12.625Z,60.4
2023-03-15T13:39:16.552Z,61.8
2023-03-15T13:45:17.787Z,58.5
2023-03-15T13:51:17.267Z,59.5
2023-03-15T13:57:18.373Z,56.6
2023-03-15T14:03:09.832Z,56.6
2023-03-15T14:09:07.748Z,55
2023-03-15T14:21:10.404Z,54.3
2023-03-15T14:35:02.922Z,54
2023-03-15T14:40:56.734Z,52.5
2023-03-15T14:46:48.057Z,52.3
2023-03-15T14:52:46.035Z,53.7
2023-03-15T14:58:38.850Z,51.9
2023-03-15T15:04:35.614Z,48.9
2023-03-15T15:10:33.670Z,50
2023-03-15T15:16:27.868Z,51
2023-03-15T15:22:23.418Z,49.5
2023-03-15T15:34:07.566Z,49.5
2023-03-15T15:40:08.890Z,49.7
2023-03-15T15:46:03.935Z,48.8
2023-03-15T15:51:54.926Z,49.7
2023-03-15T15:57:49.929Z,48.6
2023-03-15T16:03:47.550Z,48.3
2023-03-15T16:09:48.488Z,48.6
2023-03-15T16:15:45.917Z,48.7
2023-03-15T16:21:46.150Z,49.1
2023-03-15T16:27:40.067Z,51
2023-03-15T16:33:36.569Z,49.9
2023-03-15T16:39:30.728Z,50
2023-03-15T16:45:28.695Z,50.6
2023-03-15T16:51:29.659Z,50.7
2023-03-15T16:57:38.995Z,51
2023-03-15T17:09:52.082Z,55.4
2023-03-15T17:15:49.933Z,59.1
2023-03-15T17:21:42.679Z,60.9
2023-03-15T17:27:57.982Z,63.8
2023-03-15T17:33:50.142Z,65.2
2023-03-15T17:39:54.867Z,64.6
2023-03-15T17:45:58.504Z,65.7
2023-03-15T17:51:49.944Z,66.6
2023-03-15T17:57:56.202Z,68.6
2023-03-15T18:10:02.729Z,69.5
2023-03-15T18:16:12.424Z,70.5
2023-03-15T18:22:04.458Z,70.6
2023-03-15T18:27:58.795Z,71.1
2023-03-15T18:33:49.534Z,72.4
2023-03-15T18:39:44.608Z,73.3
2023-03-15T18:45:35.374Z,73.3
2023-03-15T18:51:30.885Z,76.5
2023-03-15T18:57:41.390Z,76.8
2023-03-15T19:03:32.953Z,77.4
2023-03-15T19:09:25.639Z,79
2023-03-15T19:15:18.267Z,80.7
2023-03-15T19:21:11.326Z,79.2
2023-03-15T19:27:02.651Z,79.6
2023-03-15T19:32:55.615Z,79.9
2023-03-15T19:38:47.487Z,81.1
2023-03-15T19:44:39.834Z,81.7
2023-03-15T19:50:31.802Z,81.1
2023-03-15T19:56:24.028Z,82.4
2023-03-15T20:02:15.483Z,81.5
2023-03-15T20:08:10.379Z,82.6
2023-03-15T20:14:03.083Z,82.5
2023-03-15T20:19:54.510Z,83.2
2023-03-15T20:25:45.820Z,84.3
2023-03-15T20:31:46.175Z,83.5
2023-03-15T20:37:38.208Z,85.2
2023-03-15T20:43:32.026Z,84.7
2023-03-15T20:49:23.592Z,84.5
2023-03-15T20:55:15.952Z,85.7
2023-03-15T21:01:06.726Z,85.6
2023-03-15T21:07:01.132Z,86.7
2023-03-15T21:12:56.655Z,86.6
2023-03-15T21:18:48.422Z,86
2023-03-15T21:24:56.278Z,87.2
2023-03-15T21:30:45.595Z,86.8
2023-03-15T21:36:37.689Z,86.1
2023-03-15T21:42:28.131Z,84.8
2023-03-15T21:48:18.587Z,84.3
2023-03-15T21:54:07.466Z,83.7
2023-03-15T21:59:57.817Z,84.5
2023-03-15T22:05:49.284Z,84
2023-03-15T22:11:41.362Z,85.1
2023-03-15T22:17:32.876Z,86.2
2023-03-15T22:23:29.454Z,86.3
2023-03-15T22:29:31.641Z,85.8
2023-03-15T22:35:23.194Z,86.4
2023-03-15T22:41:15.546Z,86.5
2023-03-15T22:47:20.530Z,86.5
2023-03-15T22:53:16.235Z,86.3
2023-03-15T22:59:21.495Z,85.6
2023-03-15T23:05:25.895Z,86.4
2023-03-15T23:11:31.270Z,85.7
2023-03-15T23:17:26.789Z,86.4
2023-03-15T23:23:26.179Z,84.9
2023-03-15T23:29:15.977Z,84.2
2023-03-15T23:35:42.094Z,83.8
2023-03-15T23:41:52.853Z,83.4
2023-03-15T23:47:58.562Z,84.5
2023-03-15T23:54:02.810Z,85
